createdAt,value
2022-08-17T00:00:15.766Z,22.27
2022-08-17T00:01:11.855Z,22.27
2022-08-17T00:02:10.933Z,22.26
2022-08-17T00:03:12.676Z,22.23
2022-08-17T00:04:12.036Z,22.23
2022-08-17T00:05:11.828Z,22.24
2022-08-17T00:06:11.696Z,22.24
2022-08-17T00:07:17.724Z,22.23
2022-08-17T00:08:11.562Z,22.24
2022-08-17T00:09:10.861Z,22.23
2022-08-17T00:10:12.320Z,22.23
2022-08-17T00:11:10.780Z,22.23
2022-08-17T00:12:42.827Z,22.21
2022-08-17T00:13:11.742Z,22.19
2022-08-17T00:14:10.599Z,22.19
2022-08-17T00:15:10.866Z,22.15
2022-08-17T00:16:10.582Z,22.12
2022-08-17T00:17:10.571Z,22.09
2022-08-17T00:19:06.969Z,22.08
2022-08-17T00:19:13.011Z,22.08
2022-08-17T00:20:10.672Z,22.08
2022-08-17T00:21:10.907Z,22.06
2022-08-17T00:22:34.027Z,22.06
2022-08-17T00:23:12.622Z,22.04
2022-08-17T00:24:10.481Z,22.04
2022-08-17T00:25:10.494Z,22.05
2022-08-17T00:26:10.452Z,22.06
2022-08-17T00:27:10.495Z,22.02
2022-08-17T00:28:10.529Z,22.01
2022-08-17T00:29:10.540Z,22.01
2022-08-17T00:30:12.495Z,21.99
2022-08-17T00:31:10.612Z,22.01
2022-08-17T00:33:15.647Z,21.99
2022-08-17T00:33:16.509Z,22.01
2022-08-17T00:34:12.074Z,22.01
2022-08-17T00:35:10.756Z,21.99
2022-08-17T00:36:10.780Z,22.01
2022-08-17T00:37:10.845Z,22.02
2022-08-17T00:38:10.881Z,22.04
2022-08-17T00:39:10.905Z,22.05
2022-08-17T00:40:10.301Z,22.05
2022-08-17T00:41:10.253Z,22.08
2022-08-17T00:42:10.253Z,22.08
2022-08-17T00:43:10.266Z,22.06
2022-08-17T00:44:10.255Z,22.06
2022-08-17T00:45:11.021Z,22.08
2022-08-17T00:46:10.213Z,22.09
2022-08-17T00:47:10.205Z,22.11
2022-08-17T00:48:29.122Z,22.11
2022-08-17T00:49:11.219Z,22.12
2022-08-17T00:50:10.159Z,22.12
2022-08-17T00:51:10.171Z,22.12
2022-08-17T00:52:10.802Z,22.12
2022-08-17T00:53:10.150Z,22.14
2022-08-17T00:54:10.174Z,22.15
2022-08-17T00:55:10.073Z,22.15
2022-08-17T00:56:10.163Z,22.14
2022-08-17T00:57:10.069Z,22.15
2022-08-17T00:58:10.119Z,22.15
2022-08-17T00:59:10.139Z,22.15
2022-08-17T01:00:10.170Z,22.17
2022-08-17T01:01:10.256Z,22.15
2022-08-17T01:02:11.707Z,22.15
2022-08-17T01:03:10.009Z,22.14
2022-08-17T01:04:09.991Z,22.14
2022-08-17T01:05:10.187Z,22.12
2022-08-17T01:06:10.160Z,22.09
2022-08-17T01:07:09.930Z,22.06
2022-08-17T01:08:09.929Z,22.04
2022-08-17T01:09:09.931Z,22.02
2022-08-17T01:10:58.881Z,21.99
2022-08-17T01:11:11.969Z,22.01
2022-08-17T01:12:09.849Z,21.98
2022-08-17T01:13:09.848Z,21.96
2022-08-17T01:14:09.859Z,21.93
2022-08-17T01:15:09.819Z,21.89
2022-08-17T01:16:09.797Z,21.83
2022-08-17T01:17:09.798Z,21.81
2022-08-17T01:18:09.772Z,21.79
2022-08-17T01:19:09.760Z,21.75
2022-08-17T01:20:09.847Z,21.74
2022-08-17T01:21:09.749Z,21.73
2022-08-17T01:22:09.719Z,21.71
2022-08-17T01:23:09.851Z,21.70
2022-08-17T01:24:10.985Z,21.67
2022-08-17T01:25:09.714Z,21.68
2022-08-17T01:26:10.166Z,21.68
2022-08-17T01:27:10.256Z,21.67
2022-08-17T01:28:09.659Z,21.66
2022-08-17T01:29:09.668Z,21.64
2022-08-17T01:30:56.840Z,21.61
2022-08-17T01:31:10.981Z,21.63
2022-08-17T01:32:09.601Z,21.59
2022-08-17T01:33:09.577Z,21.61
2022-08-17T01:34:09.570Z,21.61
2022-08-17T01:35:09.558Z,21.63
2022-08-17T01:36:09.539Z,21.63
2022-08-17T01:37:09.536Z,21.61
2022-08-17T01:38:09.560Z,21.59
2022-08-17T01:39:09.503Z,21.58
2022-08-17T01:40:09.544Z,21.56
2022-08-17T01:41:09.499Z,21.55
2022-08-17T01:42:09.482Z,21.55
2022-08-17T01:43:09.469Z,21.52
2022-08-17T01:44:09.437Z,21.52
2022-08-17T01:45:09.440Z,21.52
2022-08-17T01:46:09.418Z,21.52
2022-08-17T01:47:09.407Z,21.52
2022-08-17T01:48:09.390Z,21.51
2022-08-17T01:49:09.377Z,21.48
2022-08-17T01:50:09.368Z,21.46
2022-08-17T01:51:09.346Z,21.45
2022-08-17T01:52:09.340Z,21.45
2022-08-17T01:53:09.329Z,21.43
2022-08-17T01:54:09.298Z,21.43
2022-08-17T01:55:09.297Z,21.43
2022-08-17T01:56:09.281Z,21.42
2022-08-17T01:57:09.292Z,21.38
2022-08-17T01:58:09.254Z,21.40
2022-08-17T01:59:09.244Z,21.37
2022-08-17T02:00:09.252Z,21.33
2022-08-17T02:01:09.265Z,21.33
2022-08-17T02:02:09.231Z,21.33
2022-08-17T02:03:09.195Z,21.31
2022-08-17T02:04:09.180Z,21.30
2022-08-17T02:05:09.172Z,21.30
2022-08-17T02:06:27.186Z,21.28
2022-08-17T02:07:10.165Z,21.30
2022-08-17T02:08:09.116Z,21.30
2022-08-17T02:09:16.498Z,21.28
2022-08-17T02:10:18.971Z,21.30
2022-08-17T02:11:11.649Z,21.30
2022-08-17T02:12:38.925Z,21.30
2022-08-17T02:13:10.166Z,21.28
2022-08-17T02:14:09.071Z,21.30
2022-08-17T02:15:09.058Z,21.30
2022-08-17T02:16:09.060Z,21.28
2022-08-17T02:17:09.016Z,21.30
2022-08-17T02:18:08.995Z,21.30
2022-08-17T02:19:08.997Z,21.30
2022-08-17T02:20:08.975Z,21.31
2022-08-17T02:21:08.956Z,21.34
2022-08-17T02:22:08.961Z,21.34
2022-08-17T02:23:08.925Z,21.34
2022-08-17T02:24:08.920Z,21.33
2022-08-17T02:25:08.906Z,21.31
2022-08-17T02:26:08.891Z,21.28
2022-08-17T02:27:09.878Z,21.28
2022-08-17T02:28:08.859Z,21.28
2022-08-17T02:29:08.859Z,21.26
2022-08-17T02:30:59.195Z,21.24
2022-08-17T02:31:09.836Z,21.24
2022-08-17T02:32:08.814Z,21.21
2022-08-17T02:33:09.374Z,21.21
2022-08-17T02:34:08.786Z,21.19
2022-08-17T02:35:08.776Z,21.19
2022-08-17T02:36:08.758Z,21.19
2022-08-17T02:37:08.771Z,21.21
2022-08-17T02:38:08.737Z,21.19
2022-08-17T02:39:08.725Z,21.22
2022-08-17T02:40:08.757Z,21.26
2022-08-17T02:41:08.712Z,21.22
2022-08-17T02:42:08.679Z,21.21
2022-08-17T02:43:08.675Z,21.21
2022-08-17T02:44:08.669Z,21.21
2022-08-17T02:45:08.634Z,21.16
2022-08-17T02:46:08.625Z,21.13
2022-08-17T02:47:08.780Z,21.13
2022-08-17T02:48:08.721Z,21.12
2022-08-17T02:49:08.594Z,21.12
2022-08-17T02:50:09.537Z,21.11
2022-08-17T02:51:08.808Z,21.11
2022-08-17T02:52:09.548Z,21.08
2022-08-17T02:53:08.605Z,21.11
2022-08-17T02:54:40.017Z,21.09
2022-08-17T02:55:09.509Z,21.09
2022-08-17T02:56:08.498Z,21.06
2022-08-17T02:57:08.485Z,21.03
2022-08-17T02:58:08.484Z,21.01
2022-08-17T02:59:08.466Z,21.00
2022-08-17T03:00:08.450Z,20.98
2022-08-17T03:01:08.441Z,20.97
2022-08-17T03:02:08.548Z,20.94
2022-08-17T03:03:08.435Z,20.94
2022-08-17T03:04:08.388Z,20.97
2022-08-17T03:05:08.372Z,20.94
2022-08-17T03:06:08.374Z,20.94
2022-08-17T03:07:08.379Z,20.93
2022-08-17T03:08:11.751Z,20.94
2022-08-17T03:09:09.469Z,20.96
2022-08-17T03:10:08.323Z,20.93
2022-08-17T03:11:08.317Z,20.93
2022-08-17T03:12:08.283Z,20.91
2022-08-17T03:13:08.286Z,20.93
2022-08-17T03:14:08.258Z,20.94
2022-08-17T03:15:08.244Z,20.93
2022-08-17T03:16:08.258Z,20.90
2022-08-17T03:17:08.254Z,20.90
2022-08-17T03:18:08.211Z,20.88
2022-08-17T03:19:09.207Z,20.85
2022-08-17T03:20:08.182Z,20.83
2022-08-17T03:21:08.193Z,20.83
2022-08-17T03:22:36.059Z,20.83
2022-08-17T03:23:09.181Z,20.83
2022-08-17T03:24:08.888Z,20.82
2022-08-17T03:25:10.700Z,20.81
2022-08-17T03:26:12.265Z,20.78
2022-08-17T03:27:09.104Z,20.76
2022-08-17T03:28:08.103Z,20.81
2022-08-17T03:29:08.073Z,20.81
2022-08-17T03:30:08.044Z,20.82
2022-08-17T03:31:08.057Z,20.83
2022-08-17T03:32:08.024Z,20.85
2022-08-17T03:33:08.013Z,20.90
2022-08-17T03:34:08.011Z,20.90
2022-08-17T03:35:07.993Z,20.91
2022-08-17T03:36:07.971Z,20.91
2022-08-17T03:37:07.963Z,20.91
2022-08-17T03:38:07.945Z,20.90
2022-08-17T03:39:07.932Z,20.88
2022-08-17T03:40:07.983Z,20.87
2022-08-17T03:41:07.910Z,20.88
2022-08-17T03:42:07.920Z,20.91
2022-08-17T03:43:08.953Z,20.91
2022-08-17T03:44:07.891Z,20.90
2022-08-17T03:45:07.870Z,20.90
2022-08-17T03:46:26.892Z,20.90
2022-08-17T03:47:08.831Z,20.88
2022-08-17T03:48:07.820Z,20.87
2022-08-17T03:49:07.803Z,20.87
2022-08-17T03:50:10.347Z,20.85
2022-08-17T03:51:11.417Z,20.87
2022-08-17T03:52:08.773Z,20.85
2022-08-17T03:53:07.774Z,20.85
2022-08-17T03:54:07.808Z,20.83
2022-08-17T03:55:07.740Z,20.83
2022-08-17T03:56:07.710Z,20.83
2022-08-17T03:57:07.705Z,20.83
2022-08-17T03:58:07.693Z,20.85
2022-08-17T03:59:07.680Z,20.87
2022-08-17T04:00:08.661Z,20.88
2022-08-17T04:01:07.690Z,20.83
2022-08-17T04:02:07.724Z,20.85
2022-08-17T04:03:07.630Z,20.83
2022-08-17T04:04:07.615Z,20.81
2022-08-17T04:05:07.601Z,20.78
2022-08-17T04:06:07.600Z,20.81
2022-08-17T04:07:07.593Z,20.78
2022-08-17T04:08:07.570Z,20.76
2022-08-17T04:09:07.582Z,20.78
2022-08-17T04:10:07.558Z,20.75
2022-08-17T04:11:07.519Z,20.78
2022-08-17T04:12:07.513Z,20.78
2022-08-17T04:13:07.515Z,20.79
2022-08-17T04:14:07.493Z,20.81
2022-08-17T04:15:07.481Z,20.82
2022-08-17T04:16:07.471Z,20.85
2022-08-17T04:17:07.509Z,20.88
2022-08-17T04:18:07.695Z,20.88
2022-08-17T04:19:07.412Z,20.91
2022-08-17T04:20:07.398Z,20.90
2022-08-17T04:21:07.399Z,20.90
2022-08-17T04:22:07.380Z,20.91
2022-08-17T04:23:07.372Z,20.93
2022-08-17T04:24:07.363Z,20.93
2022-08-17T04:25:07.375Z,20.94
2022-08-17T04:26:07.327Z,20.98
2022-08-17T04:27:07.331Z,21.00
2022-08-17T04:28:07.676Z,21.01
2022-08-17T04:29:08.300Z,21.03
2022-08-17T04:30:07.451Z,21.03
2022-08-17T04:31:07.455Z,21.03
2022-08-17T04:32:07.279Z,21.03
2022-08-17T04:33:07.540Z,21.05
2022-08-17T04:34:07.261Z,21.06
2022-08-17T04:35:07.212Z,21.08
2022-08-17T04:36:07.249Z,21.12
2022-08-17T04:37:07.191Z,21.16
2022-08-17T04:38:07.187Z,21.18
2022-08-17T04:39:07.163Z,21.24
2022-08-17T04:40:07.227Z,21.27
2022-08-17T04:41:07.139Z,21.31
2022-08-17T04:42:07.121Z,21.34
2022-08-17T04:43:07.113Z,21.37
2022-08-17T04:44:07.094Z,21.38
2022-08-17T04:45:07.097Z,21.43
2022-08-17T04:46:07.078Z,21.48
2022-08-17T04:47:07.062Z,21.52
2022-08-17T04:48:07.660Z,21.55
2022-08-17T04:49:07.094Z,21.58
2022-08-17T04:50:07.034Z,21.61
2022-08-17T04:51:07.035Z,21.66
2022-08-17T04:52:07.108Z,21.68
2022-08-17T04:53:06.978Z,21.71
2022-08-17T04:54:06.968Z,21.74
2022-08-17T04:55:06.947Z,21.81
2022-08-17T04:56:06.954Z,21.83
2022-08-17T04:57:06.951Z,21.83
2022-08-17T04:58:06.911Z,21.91
2022-08-17T04:59:06.915Z,21.96
2022-08-17T05:00:06.898Z,21.99
2022-08-17T05:01:06.963Z,22.02
2022-08-17T05:02:06.855Z,22.05
2022-08-17T05:03:06.920Z,22.09
2022-08-17T05:04:21.042Z,22.12
2022-08-17T05:05:07.887Z,22.17
2022-08-17T05:06:06.863Z,22.20
2022-08-17T05:07:06.808Z,22.24
2022-08-17T05:08:06.781Z,22.29
2022-08-17T05:09:06.834Z,22.35
2022-08-17T05:10:06.779Z,22.38
2022-08-17T05:11:06.756Z,22.44
2022-08-17T05:12:06.742Z,22.46
2022-08-17T05:13:06.737Z,22.49
2022-08-17T05:14:06.708Z,22.54
2022-08-17T05:15:06.740Z,22.57
2022-08-17T05:16:06.690Z,22.60
2022-08-17T05:17:10.938Z,22.64
2022-08-17T05:18:06.671Z,22.66
2022-08-17T05:19:06.650Z,22.70
2022-08-17T05:20:06.636Z,22.74
2022-08-17T05:21:06.694Z,22.76
2022-08-17T05:22:06.625Z,22.76
2022-08-17T05:23:06.591Z,22.78
2022-08-17T05:24:16.728Z,22.78
2022-08-17T05:25:07.577Z,22.76
2022-08-17T05:26:07.903Z,22.76
2022-08-17T05:27:07.567Z,22.81
2022-08-17T05:28:06.518Z,22.86
2022-08-17T05:29:06.517Z,22.89
2022-08-17T05:30:06.567Z,22.91
2022-08-17T05:31:06.508Z,22.93
2022-08-17T05:32:38.059Z,22.96
2022-08-17T05:33:07.510Z,22.96
2022-08-17T05:34:06.490Z,22.97
2022-08-17T05:35:06.432Z,23.03
2022-08-17T05:36:06.474Z,23.07
2022-08-17T05:37:06.438Z,23.09
2022-08-17T05:38:06.429Z,23.07
2022-08-17T05:39:06.442Z,23.11
2022-08-17T05:40:06.451Z,23.12
2022-08-17T05:41:06.422Z,23.12
2022-08-17T05:42:06.348Z,23.15
2022-08-17T05:43:06.337Z,23.16
2022-08-17T05:44:06.334Z,23.18
2022-08-17T05:45:06.319Z,23.19
2022-08-17T05:46:06.295Z,23.22
2022-08-17T05:47:06.291Z,23.26
2022-08-17T05:48:06.284Z,23.29
2022-08-17T05:49:06.276Z,23.32
2022-08-17T05:50:09.848Z,23.35
2022-08-17T05:51:06.242Z,23.38
2022-08-17T05:52:06.315Z,23.42
2022-08-17T05:53:06.225Z,23.47
2022-08-17T05:54:06.206Z,23.49
2022-08-17T05:55:06.186Z,23.52
2022-08-17T05:56:06.168Z,23.53
2022-08-17T05:57:07.155Z,23.54
2022-08-17T05:58:06.151Z,23.59
2022-08-17T05:59:06.135Z,23.60
2022-08-17T06:00:06.227Z,23.62
2022-08-17T06:01:06.154Z,23.63
2022-08-17T06:02:06.120Z,23.64
2022-08-17T06:03:06.073Z,23.67
2022-08-17T06:04:06.100Z,23.69
2022-08-17T06:05:06.128Z,23.72
2022-08-17T06:06:06.068Z,23.74
2022-08-17T06:07:06.046Z,23.78
2022-08-17T06:08:14.792Z,23.79
2022-08-17T06:09:07.718Z,23.82
2022-08-17T06:10:08.697Z,23.89
2022-08-17T06:11:05.988Z,23.92
2022-08-17T06:12:05.979Z,23.96
2022-08-17T06:13:05.996Z,23.99
2022-08-17T06:14:05.954Z,24.09
2022-08-17T06:15:05.946Z,24.19
2022-08-17T06:16:25.866Z,24.29
2022-08-17T06:17:06.907Z,24.36
2022-08-17T06:18:05.924Z,24.42
2022-08-17T06:19:05.934Z,24.46
2022-08-17T06:20:06.329Z,24.51
2022-08-17T06:21:05.890Z,24.55
2022-08-17T06:22:05.850Z,24.59
2022-08-17T06:23:05.853Z,24.63
2022-08-17T06:24:05.835Z,24.63
2022-08-17T06:25:10.183Z,24.64
2022-08-17T06:26:06.817Z,24.66
2022-08-17T06:27:05.779Z,24.68
2022-08-17T06:28:05.861Z,24.74
2022-08-17T06:29:05.803Z,24.79
2022-08-17T06:30:05.747Z,24.82
2022-08-17T06:31:05.734Z,24.80
2022-08-17T06:32:05.726Z,24.82
2022-08-17T06:33:05.713Z,24.86
2022-08-17T06:34:05.702Z,24.89
2022-08-17T06:35:05.694Z,24.90
2022-08-17T06:36:09.550Z,24.93
2022-08-17T06:37:05.664Z,24.97
2022-08-17T06:38:05.664Z,25.01
2022-08-17T06:39:05.629Z,25.05
2022-08-17T06:40:05.768Z,25.07
2022-08-17T06:41:05.617Z,25.08
2022-08-17T06:42:05.599Z,25.12
2022-08-17T06:43:07.225Z,25.19
2022-08-17T06:44:05.571Z,25.22
2022-08-17T06:45:05.575Z,25.24
2022-08-17T06:46:06.266Z,25.29
2022-08-17T06:47:05.532Z,25.31
2022-08-17T06:48:05.527Z,25.35
2022-08-17T06:49:05.520Z,25.38
2022-08-17T06:50:05.671Z,25.42
2022-08-17T06:51:05.479Z,25.46
2022-08-17T06:52:05.486Z,25.49
2022-08-17T06:53:05.481Z,25.54
2022-08-17T06:54:05.448Z,25.59
2022-08-17T06:55:05.455Z,25.66
2022-08-17T06:56:05.458Z,25.71
2022-08-17T06:57:05.420Z,25.75
2022-08-17T06:58:16.207Z,25.79
2022-08-17T06:59:06.390Z,25.83
2022-08-17T07:00:05.446Z,25.86
2022-08-17T07:01:05.450Z,25.90
2022-08-17T07:02:05.358Z,25.94
2022-08-17T07:03:05.614Z,26.00
2022-08-17T07:04:05.367Z,26.06
2022-08-17T07:05:06.289Z,26.16
2022-08-17T07:06:05.304Z,26.19
2022-08-17T07:07:05.267Z,26.23
2022-08-17T07:08:05.270Z,26.24
2022-08-17T07:09:05.262Z,26.28
2022-08-17T07:10:05.291Z,26.29
2022-08-17T07:11:05.237Z,26.34
2022-08-17T07:12:05.228Z,26.35
2022-08-17T07:13:05.202Z,26.38
2022-08-17T07:14:05.178Z,26.39
2022-08-17T07:15:05.195Z,26.44
2022-08-17T07:16:05.205Z,26.49
2022-08-17T07:17:05.170Z,26.50
2022-08-17T07:18:05.261Z,26.50
2022-08-17T07:19:05.147Z,26.51
2022-08-17T07:20:05.236Z,26.53
2022-08-17T07:21:05.109Z,26.53
2022-08-17T07:22:05.115Z,26.54
2022-08-17T07:23:05.116Z,26.56
2022-08-17T07:24:05.100Z,26.56
2022-08-17T07:25:05.084Z,26.57
2022-08-17T07:26:05.111Z,26.61
2022-08-17T07:27:05.084Z,26.64
2022-08-17T07:28:07.335Z,26.68
2022-08-17T07:29:05.889Z,26.75
2022-08-17T07:30:10.094Z,26.79
2022-08-17T07:31:05.980Z,26.87
2022-08-17T07:32:04.980Z,26.94
2022-08-17T07:33:04.972Z,26.96
2022-08-17T07:34:04.949Z,27.03
2022-08-17T07:35:04.923Z,27.06
2022-08-17T07:36:04.905Z,27.05
2022-08-17T07:37:04.888Z,27.08
2022-08-17T07:38:04.899Z,27.08
2022-08-17T07:39:05.881Z,27.11
2022-08-17T07:40:16.078Z,27.15
2022-08-17T07:41:05.913Z,27.18
2022-08-17T07:42:04.850Z,27.16
2022-08-17T07:43:05.072Z,27.20
2022-08-17T07:44:04.799Z,27.24
2022-08-17T07:45:04.791Z,27.27
2022-08-17T07:46:04.848Z,27.28
2022-08-17T07:47:04.808Z,27.35
2022-08-17T07:48:04.764Z,27.43
2022-08-17T07:49:04.785Z,27.46
2022-08-17T07:50:04.727Z,27.49
2022-08-17T07:51:04.721Z,27.55
2022-08-17T07:52:24.070Z,27.55
2022-08-17T07:53:05.697Z,27.58
2022-08-17T07:54:14.572Z,27.59
2022-08-17T07:55:05.687Z,27.58
2022-08-17T07:56:04.670Z,27.63
2022-08-17T07:57:04.696Z,27.62
2022-08-17T07:58:04.695Z,27.68
2022-08-17T07:59:04.661Z,27.71
2022-08-17T08:00:04.621Z,27.76
2022-08-17T08:01:04.629Z,27.78
2022-08-17T08:02:05.360Z,27.86
2022-08-17T08:03:04.584Z,27.87
2022-08-17T08:04:04.567Z,27.90
2022-08-17T08:05:06.502Z,27.93
2022-08-17T08:06:04.569Z,27.99
2022-08-17T08:07:04.541Z,28.01
2022-08-17T08:08:04.539Z,28.09
2022-08-17T08:09:04.674Z,28.13
2022-08-17T08:10:04.542Z,28.18
2022-08-17T08:11:04.491Z,28.23
2022-08-17T08:12:04.499Z,28.23
2022-08-17T08:13:04.449Z,28.21
2022-08-17T08:14:04.458Z,28.27
2022-08-17T08:15:04.446Z,28.27
2022-08-17T08:16:04.431Z,28.35
2022-08-17T08:17:04.438Z,28.39
2022-08-17T08:18:04.396Z,28.42
2022-08-17T08:19:04.373Z,28.45
2022-08-17T08:20:37.921Z,28.50
2022-08-17T08:21:05.358Z,28.48
2022-08-17T08:22:04.410Z,28.48
2022-08-17T08:23:04.346Z,28.48
2022-08-17T08:24:04.352Z,28.45
2022-08-17T08:25:04.336Z,28.50
2022-08-17T08:26:04.319Z,28.58
2022-08-17T08:27:04.300Z,28.62
2022-08-17T08:28:04.268Z,28.65
2022-08-17T08:29:04.233Z,28.70
2022-08-17T08:30:04.315Z,28.76
2022-08-17T08:31:04.234Z,28.79
2022-08-17T08:32:04.306Z,28.74
2022-08-17T08:33:04.199Z,28.69
2022-08-17T08:34:04.251Z,28.61
2022-08-17T08:35:04.240Z,28.62
2022-08-17T08:36:04.204Z,28.67
2022-08-17T08:37:16.418Z,28.70
2022-08-17T08:38:05.149Z,28.74
2022-08-17T08:39:04.110Z,28.76
2022-08-17T08:40:04.163Z,28.85
2022-08-17T08:41:04.076Z,28.89
2022-08-17T08:42:04.092Z,28.95
2022-08-17T08:43:04.068Z,29.02
2022-08-17T08:44:04.090Z,29.00
2022-08-17T08:45:05.278Z,29.03
2022-08-17T08:46:04.039Z,29.05
2022-08-17T08:47:04.055Z,29.00
2022-08-17T08:48:05.384Z,29.00
2022-08-17T08:49:12.139Z,29.02
2022-08-17T08:50:05.873Z,28.98
2022-08-17T08:51:03.983Z,28.97
2022-08-17T08:52:04.062Z,29.00
2022-08-17T08:53:03.933Z,29.10
2022-08-17T08:54:03.943Z,29.15
2022-08-17T08:55:03.921Z,29.14
2022-08-17T08:56:03.913Z,29.14
2022-08-17T08:58:04.866Z,29.17
2022-08-17T08:59:03.867Z,29.18
2022-08-17T09:00:03.887Z,29.21
2022-08-17T09:01:03.938Z,29.21
2022-08-17T09:02:03.839Z,29.25
2022-08-17T09:03:03.802Z,29.29
2022-08-17T09:04:21.393Z,29.30
2022-08-17T09:05:18.314Z,29.32
2022-08-17T09:06:04.797Z,29.32
2022-08-17T09:07:04.809Z,29.30
2022-08-17T09:08:03.783Z,29.30
2022-08-17T09:09:03.729Z,29.32
2022-08-17T09:10:03.734Z,29.33
2022-08-17T09:11:03.727Z,29.35
2022-08-17T09:12:04.363Z,29.36
2022-08-17T09:13:09.948Z,29.37
2022-08-17T09:14:04.700Z,29.44
2022-08-17T09:15:03.670Z,29.47
2022-08-17T09:16:03.659Z,29.42
2022-08-17T09:17:03.649Z,29.39
2022-08-17T09:19:00.954Z,29.42
2022-08-17T09:19:05.267Z,29.47
2022-08-17T09:20:03.623Z,29.49
2022-08-17T09:21:03.588Z,29.51
2022-08-17T09:22:03.585Z,29.55
2022-08-17T09:23:03.597Z,29.57
2022-08-17T09:24:03.546Z,29.55
2022-08-17T09:25:03.554Z,29.66
2022-08-17T09:26:03.534Z,29.78
2022-08-17T09:27:03.548Z,29.78
2022-08-17T09:28:03.520Z,29.81
2022-08-17T09:29:03.494Z,29.71
2022-08-17T09:30:03.484Z,29.63
2022-08-17T09:31:03.485Z,29.63
2022-08-17T09:32:03.459Z,29.58
2022-08-17T09:33:03.486Z,29.63
2022-08-17T09:34:03.419Z,29.58
2022-08-17T09:35:03.436Z,29.55
2022-08-17T09:36:03.401Z,29.60
2022-08-17T09:37:03.413Z,29.69
2022-08-17T09:38:03.889Z,29.76
2022-08-17T09:39:03.384Z,29.84
2022-08-17T09:40:03.416Z,29.91
2022-08-17T09:41:03.387Z,29.95
2022-08-17T09:42:03.334Z,30.00
2022-08-17T09:43:03.338Z,30.03
2022-08-17T09:44:03.301Z,30.06
2022-08-17T09:45:03.311Z,30.06
2022-08-17T09:46:05.298Z,30.08
2022-08-17T09:47:03.297Z,30.16
2022-08-17T09:48:03.272Z,30.22
2022-08-17T09:49:03.284Z,30.28
2022-08-17T09:50:03.421Z,30.34
2022-08-17T09:51:06.580Z,30.34
2022-08-17T09:52:03.204Z,30.36
2022-08-17T09:53:03.245Z,30.37
2022-08-17T09:54:34.767Z,30.42
2022-08-17T09:55:04.169Z,30.44
2022-08-17T09:56:03.166Z,30.46
2022-08-17T09:57:28.072Z,30.51
2022-08-17T09:58:04.125Z,30.56
2022-08-17T09:59:03.109Z,30.60
2022-08-17T10:00:03.106Z,30.64
2022-08-17T10:01:03.230Z,30.67
2022-08-17T10:02:03.094Z,30.68
2022-08-17T10:03:03.092Z,30.73
2022-08-17T10:04:03.047Z,30.79
2022-08-17T10:05:03.032Z,30.82
2022-08-17T10:06:03.041Z,30.86
2022-08-17T10:07:03.027Z,30.81
2022-08-17T10:08:03.025Z,30.79
2022-08-17T10:09:02.991Z,30.78
2022-08-17T10:10:02.967Z,30.76
2022-08-17T10:11:02.972Z,30.78
2022-08-17T10:12:02.958Z,30.79
2022-08-17T10:13:02.965Z,30.83
2022-08-17T10:14:02.930Z,30.88
2022-08-17T10:15:07.759Z,30.86
2022-08-17T10:16:03.913Z,30.85
2022-08-17T10:17:02.945Z,30.85
2022-08-17T10:18:02.888Z,30.86
2022-08-17T10:19:02.888Z,30.93
2022-08-17T10:20:02.847Z,30.94
2022-08-17T10:21:02.852Z,30.86
2022-08-17T10:22:14.927Z,30.75
2022-08-17T10:23:03.866Z,30.64
2022-08-17T10:24:02.804Z,30.63
2022-08-17T10:25:23.609Z,30.59
2022-08-17T10:26:03.783Z,30.67
2022-08-17T10:27:02.753Z,30.75
2022-08-17T10:28:02.762Z,30.70
2022-08-17T10:29:02.748Z,30.66
2022-08-17T10:30:02.734Z,30.66
2022-08-17T10:31:33.182Z,30.70
2022-08-17T10:32:03.760Z,30.79
2022-08-17T10:33:02.704Z,30.83
2022-08-17T10:34:02.716Z,30.79
2022-08-17T10:35:02.677Z,30.79
2022-08-17T10:36:06.294Z,30.85
2022-08-17T10:37:03.678Z,30.94
2022-08-17T10:38:03.232Z,31.01
2022-08-17T10:39:02.622Z,31.09
2022-08-17T10:40:02.773Z,31.07
2022-08-17T10:41:02.606Z,31.05
2022-08-17T10:42:02.575Z,31.01
2022-08-17T10:43:02.608Z,30.91
2022-08-17T10:44:38.932Z,30.83
2022-08-17T10:45:03.571Z,30.81
2022-08-17T10:46:27.683Z,30.79
2022-08-17T10:47:03.507Z,30.76
2022-08-17T10:48:05.862Z,30.72
2022-08-17T10:49:02.516Z,30.73
2022-08-17T10:50:02.474Z,30.73
2022-08-17T10:51:02.810Z,30.75
2022-08-17T10:52:02.474Z,30.70
2022-08-17T10:53:02.889Z,30.64
2022-08-17T10:54:02.418Z,30.66
2022-08-17T10:55:02.436Z,30.66
2022-08-17T10:56:02.443Z,30.70
2022-08-17T10:57:02.454Z,30.78
2022-08-17T10:58:02.440Z,30.85
2022-08-17T10:59:02.568Z,30.90
2022-08-17T11:00:02.348Z,30.83
2022-08-17T11:01:02.502Z,30.93
2022-08-17T11:02:02.345Z,30.93
2022-08-17T11:03:02.351Z,31.01
2022-08-17T11:04:02.318Z,31.13
2022-08-17T11:05:02.309Z,31.18
2022-08-17T11:06:02.297Z,31.25
2022-08-17T11:07:02.276Z,31.31
2022-08-17T11:08:02.341Z,31.25
2022-08-17T11:09:02.268Z,31.19
2022-08-17T11:10:02.279Z,31.16
2022-08-17T11:11:02.212Z,31.18
2022-08-17T11:12:02.219Z,31.22
2022-08-17T11:13:02.242Z,31.23
2022-08-17T11:14:02.220Z,31.23
2022-08-17T11:15:02.160Z,31.31
2022-08-17T11:16:07.694Z,31.35
2022-08-17T11:17:03.129Z,31.32
2022-08-17T11:18:02.146Z,31.28
2022-08-17T11:19:02.134Z,31.32
2022-08-17T11:20:02.098Z,31.31
2022-08-17T11:21:02.100Z,31.23
2022-08-17T11:22:02.095Z,31.13
2022-08-17T11:23:02.095Z,31.04
2022-08-17T11:24:02.054Z,31.05
2022-08-17T11:25:02.053Z,31.15
2022-08-17T11:26:02.162Z,31.07
2022-08-17T11:27:02.018Z,31.03
2022-08-17T11:28:02.050Z,31.05
2022-08-17T11:29:02.065Z,31.03
2022-08-17T11:30:02.862Z,31.07
2022-08-17T11:31:01.988Z,31.16
2022-08-17T11:32:01.951Z,31.19
2022-08-17T11:33:02.006Z,31.30
2022-08-17T11:34:02.952Z,31.28
2022-08-17T11:35:01.949Z,31.22
2022-08-17T11:36:01.905Z,31.22
2022-08-17T11:37:01.946Z,31.30
2022-08-17T11:38:01.900Z,31.37
2022-08-17T11:39:01.942Z,31.42
2022-08-17T11:40:01.956Z,31.59
2022-08-17T11:41:01.890Z,31.67
2022-08-17T11:42:01.830Z,31.82
2022-08-17T11:43:01.951Z,31.97
2022-08-17T11:44:01.912Z,32.12
2022-08-17T11:45:01.798Z,32.16
2022-08-17T11:46:01.827Z,32.17
2022-08-17T11:47:01.789Z,32.24
2022-08-17T11:48:26.704Z,32.19
2022-08-17T11:49:02.817Z,32.16
2022-08-17T11:50:01.751Z,32.02
2022-08-17T11:51:01.740Z,31.85
2022-08-17T11:52:01.794Z,31.74
2022-08-17T11:53:01.741Z,31.62
2022-08-17T11:54:28.967Z,31.47
2022-08-17T11:55:31.505Z,31.41
2022-08-17T11:56:02.655Z,31.37
2022-08-17T11:57:01.652Z,31.32
2022-08-17T11:58:01.764Z,31.32
2022-08-17T11:59:01.656Z,31.30
2022-08-17T12:00:01.612Z,31.30
2022-08-17T12:01:01.619Z,31.40
2022-08-17T12:02:01.583Z,31.52
2022-08-17T12:03:01.593Z,31.56
2022-08-17T12:04:01.620Z,31.67
2022-08-17T12:05:01.557Z,31.75
2022-08-17T12:06:01.556Z,31.94
2022-08-17T12:07:01.562Z,32.13
2022-08-17T12:08:01.511Z,32.19
2022-08-17T12:09:08.591Z,32.13
2022-08-17T12:10:04.269Z,32.07
2022-08-17T12:11:07.099Z,32.06
2022-08-17T12:12:13.071Z,32.10
2022-08-17T12:13:02.459Z,32.19
2022-08-17T12:14:01.461Z,32.16
2022-08-17T12:15:16.734Z,32.16
2022-08-17T12:16:02.409Z,32.13
2022-08-17T12:17:01.408Z,32.05
2022-08-17T12:18:01.381Z,31.99
2022-08-17T12:19:01.398Z,31.99
2022-08-17T12:20:01.378Z,32.12
2022-08-17T12:21:01.363Z,32.19
2022-08-17T12:22:01.354Z,32.17
2022-08-17T12:23:01.488Z,32.19
2022-08-17T12:24:01.340Z,32.22
2022-08-17T12:25:01.335Z,32.22
2022-08-17T12:26:02.045Z,32.16
2022-08-17T12:27:01.286Z,32.03
2022-08-17T12:28:06.237Z,31.91
2022-08-17T12:29:02.265Z,31.85
2022-08-17T12:30:01.240Z,31.79
2022-08-17T12:31:01.238Z,31.76
2022-08-17T12:32:01.223Z,31.78
2022-08-17T12:33:01.210Z,31.74
2022-08-17T12:34:01.222Z,31.65
2022-08-17T12:35:01.169Z,31.50
2022-08-17T12:36:01.162Z,31.40
2022-08-17T12:37:01.167Z,31.31
2022-08-17T12:38:01.143Z,31.28
2022-08-17T12:39:13.786Z,31.25
2022-08-17T12:40:02.189Z,31.19
2022-08-17T12:41:01.122Z,31.27
2022-08-17T12:42:02.696Z,31.38
2022-08-17T12:43:01.092Z,31.52
2022-08-17T12:44:01.079Z,31.71
2022-08-17T12:45:01.061Z,31.79
2022-08-17T12:46:01.225Z,31.87
2022-08-17T12:47:02.036Z,31.91
2022-08-17T12:48:01.017Z,31.92
2022-08-17T12:49:01.026Z,31.97
2022-08-17T12:50:00.992Z,31.98
2022-08-17T12:51:00.986Z,31.98
2022-08-17T12:52:00.972Z,31.94
2022-08-17T12:53:02.509Z,31.92